createdAt,value
2018-06-20T02:11:11.534Z,3
2018-06-20T02:21:11.896Z,7
2018-06-20T02:25:42.091Z,10
2018-06-20T02:28:42.229Z,13
2018-06-20T02:30:42.310Z,17
2018-06-20T02:32:42.421Z,20
2018-06-20T02:34:12.456Z,23
2018-06-20T02:35:12.499Z,27
2018-06-20T02:36:12.525Z,30
2018-06-20T02:37:12.577Z,33
2018-06-20T02:38:12.660Z,37
2018-06-20T02:39:12.655Z,40
2018-06-20T02:40:12.690Z,43
2018-06-20T02:40:42.711Z,47
2018-06-20T02:41:42.755Z,50
2018-06-20T02:42:12.780Z,53
2018-06-20T02:43:12.871Z,57
2018-06-20T02:43:42.879Z,60
2018-06-20T02:44:12.868Z,63
2018-06-20T02:44:42.914Z,67
2018-06-20T02:45:12.909Z,70
2018-06-20T02:45:42.952Z,73
2018-06-20T02:46:12.988Z,77
2018-06-20T02:46:42.975Z,80
2018-06-20T02:47:13.015Z,83
2018-06-20T02:47:42.982Z,87
2018-06-20T02:48:13.097Z,90
2018-06-20T02:48:43.081Z,93
2018-06-20T02:49:13.095Z,97
2018-06-20T02:49:43.191Z,100
2018-06-20T02:50:13.147Z,103
2018-06-20T02:50:43.141Z,107
2018-06-20T02:51:13.175Z,110
2018-06-20T02:51:43.176Z,113
2018-06-20T02:52:13.217Z,120
2018-06-20T02:52:43.325Z,123
2018-06-20T02:53:13.346Z,127
2018-06-20T02:53:43.269Z,133
2018-06-20T02:54:13.314Z,140
2018-06-20T02:54:43.299Z,143
2018-06-20T02:55:13.365Z,150
2018-06-20T02:55:43.368Z,153
2018-06-20T02:56:13.402Z,160
2018-06-20T02:56:43.396Z,167
2018-06-20T02:57:13.442Z,170
2018-06-20T02:57:43.460Z,177
2018-06-20T02:58:13.587Z,183
2018-06-20T02:58:43.476Z,187
2018-06-20T02:59:13.487Z,193
2018-06-20T02:59:43.522Z,200
2018-06-20T03:00:13.511Z,203
2018-06-20T03:00:43.579Z,210
2018-06-20T03:01:13.628Z,213
2018-06-20T03:01:43.582Z,220
2018-06-20T03:02:13.669Z,227
2018-06-20T03:02:43.695Z,233
2018-06-20T03:03:13.699Z,240
2018-06-20T03:03:43.667Z,247
2018-06-20T03:04:13.703Z,253
2018-06-20T03:04:43.718Z,260
2018-06-20T03:05:13.747Z,267
2018-06-20T03:05:43.758Z,273
2018-06-20T03:06:13.793Z,280
2018-06-20T03:06:43.802Z,287
2018-06-20T03:07:13.834Z,293
2018-06-20T03:07:43.839Z,300
2018-06-20T03:08:13.931Z,310
2018-06-20T03:08:43.900Z,317
2018-06-20T03:09:13.955Z,323
2018-06-20T03:09:43.919Z,330
2018-06-20T03:10:14.000Z,337
2018-06-20T03:10:43.982Z,347
2018-06-20T03:11:14.042Z,357
2018-06-20T03:11:44.018Z,367
2018-06-20T03:12:14.038Z,377
2018-06-20T03:12:44.053Z,387
2018-06-20T03:13:14.137Z,400
2018-06-20T03:13:44.099Z,410
2018-06-20T03:14:14.162Z,423
2018-06-20T03:14:44.237Z,430
2018-06-20T03:15:14.204Z,443
2018-06-20T03:15:44.222Z,457
2018-06-20T03:16:14.209Z,467
2018-06-20T03:16:44.238Z,480
2018-06-20T03:17:14.253Z,493
2018-06-20T03:17:44.308Z,507
2018-06-20T03:18:14.301Z,520
2018-06-20T03:18:44.353Z,530
2018-06-20T03:19:14.322Z,543
2018-06-20T03:19:44.414Z,557
2018-06-20T03:20:14.429Z,570
2018-06-20T03:20:44.411Z,583
2018-06-20T03:21:14.400Z,597
2018-06-20T03:21:44.484Z,610
2018-06-20T03:22:14.465Z,623
2018-06-20T03:22:44.508Z,637
2018-06-20T03:23:14.539Z,647
2018-06-20T03:23:44.493Z,660
2018-06-20T03:24:14.520Z,673
2018-06-20T03:24:44.608Z,687
2018-06-20T03:25:14.614Z,703
2018-06-20T03:25:44.583Z,713
2018-06-20T03:26:14.665Z,727
2018-06-20T03:26:44.630Z,740
2018-06-20T03:27:14.749Z,750
2018-06-20T03:27:44.735Z,763
2018-06-20T03:28:14.721Z,773
2018-06-20T03:28:44.721Z,787
2018-06-20T03:29:14.760Z,800
2018-06-20T03:29:44.794Z,813
2018-06-20T03:30:14.831Z,827
2018-06-20T03:30:44.793Z,843
2018-06-20T03:31:14.822Z,857
2018-06-20T03:31:44.840Z,873
2018-06-20T03:32:14.878Z,893
2018-06-20T03:32:44.915Z,913
2018-06-20T03:33:14.982Z,930
2018-06-20T03:33:44.948Z,950
2018-06-20T03:34:14.998Z,970
2018-06-20T03:34:44.993Z,987
2018-06-20T03:35:14.996Z,1003
2018-06-20T03:35:45.012Z,1013
2018-06-20T03:36:15.130Z,1023
2018-06-20T03:36:45.085Z,1027
2018-06-20T03:37:15.235Z,1033
2018-06-20T03:37:45.125Z,1037
2018-06-20T03:38:15.179Z,1043
2018-06-20T03:38:45.172Z,1053
2018-06-20T03:39:15.190Z,1063
2018-06-20T03:39:45.245Z,1073
2018-06-20T03:40:15.234Z,1090
2018-06-20T03:40:45.235Z,1110
2018-06-20T03:41:15.271Z,1133
2018-06-20T03:41:45.311Z,1160
2018-06-20T03:42:15.408Z,1187
2018-06-20T03:42:45.353Z,1213
2018-06-20T03:43:15.386Z,1240
2018-06-20T03:43:45.371Z,1267
2018-06-20T03:44:15.469Z,1293
2018-06-20T03:44:45.454Z,1327
2018-06-20T03:45:15.460Z,1357
2018-06-20T03:45:45.501Z,1383
2018-06-20T03:46:15.506Z,1403
2018-06-20T03:46:45.524Z,1427
2018-06-20T03:47:15.607Z,1447
2018-06-20T03:47:45.569Z,1463
2018-06-20T03:48:15.605Z,1470
2018-06-20T03:48:45.628Z,1473
2018-06-20T03:49:45.672Z,1480
2018-06-20T03:50:15.731Z,1493
2018-06-20T03:50:45.692Z,1527
2018-06-20T03:51:15.730Z,1580
2018-06-20T03:51:45.726Z,1650
2018-06-20T03:52:15.820Z,1727
2018-06-20T03:52:45.766Z,1817
2018-06-20T03:53:15.824Z,1910
2018-06-20T03:53:45.781Z,1997
2018-06-20T03:54:15.860Z,2077
2018-06-20T03:54:45.860Z,2140
2018-06-20T03:55:15.855Z,2190
2018-06-20T03:55:45.909Z,2227
2018-06-20T03:56:15.941Z,2243
2018-06-20T03:56:45.928Z,2257
2018-06-20T03:57:16.027Z,2260
2018-06-20T03:57:45.997Z,2267
2018-06-20T03:58:16.008Z,2280
2018-06-20T03:58:46.028Z,2300
2018-06-20T03:59:16.038Z,2320
2018-06-20T03:59:46.126Z,2347
2018-06-20T04:00:16.122Z,2367
2018-06-20T04:00:46.169Z,2387
2018-06-20T04:01:16.243Z,2407
2018-06-20T04:01:46.199Z,2423
2018-06-20T04:02:16.296Z,2450
2018-06-20T04:02:46.222Z,2483
2018-06-20T04:03:16.272Z,2523
2018-06-20T04:03:46.297Z,2563
2018-06-20T04:04:16.348Z,2610
2018-06-20T04:04:46.608Z,2657
2018-06-20T04:05:16.381Z,2697
2018-06-20T04:05:46.377Z,2743
2018-06-20T04:06:16.395Z,2783
2018-06-20T04:06:46.496Z,2823
2018-06-20T04:07:16.475Z,2860
2018-06-20T04:07:46.440Z,2893
2018-06-20T04:08:16.528Z,2930
2018-06-20T04:08:46.513Z,2973
2018-06-20T04:09:16.505Z,3010
2018-06-20T04:09:46.554Z,3047
2018-06-20T04:10:16.554Z,3087
2018-06-20T04:10:46.609Z,3130
2018-06-20T04:11:16.580Z,3167
2018-06-20T04:11:46.653Z,3190
2018-06-20T04:12:16.673Z,3197
2018-06-20T04:12:46.684Z,3193
2018-06-20T04:13:16.672Z,3197
2018-06-20T04:13:46.716Z,3203
2018-06-20T04:14:16.697Z,3223
2018-06-20T04:14:46.715Z,3263
2018-06-20T04:15:16.778Z,3320
2018-06-20T04:15:46.790Z,3383
2018-06-20T04:16:16.827Z,3440
2018-06-20T04:16:46.821Z,3497
2018-06-20T04:17:16.855Z,3547
2018-06-20T04:17:46.851Z,3590
2018-06-20T04:18:16.935Z,3627
2018-06-20T04:18:46.906Z,3663
2018-06-20T04:19:16.931Z,3700
2018-06-20T04:19:46.950Z,3737
2018-06-20T04:20:16.968Z,3773
2018-06-20T04:20:47.082Z,3810
2018-06-20T04:21:17.036Z,3840
2018-06-20T04:21:47.057Z,3867
2018-06-20T04:22:17.055Z,3880
2018-06-20T04:22:47.075Z,3883
2018-06-20T04:23:17.114Z,3877
2018-06-20T04:23:47.153Z,3860
2018-06-20T04:24:17.228Z,3840
2018-06-20T04:24:47.220Z,3830
2018-06-20T04:25:17.181Z,3823
2018-06-20T04:25:47.246Z,3830
2018-06-20T04:26:17.227Z,3840
2018-06-20T04:26:47.271Z,3843
2018-06-20T04:27:17.268Z,3840
2018-06-20T04:27:47.328Z,3833
2018-06-20T04:28:17.318Z,3813
2018-06-20T04:28:47.356Z,3783
2018-06-20T04:29:17.373Z,3750
2018-06-20T04:29:47.373Z,3717
2018-06-20T04:30:17.394Z,3683
2018-06-20T04:30:47.479Z,3653
2018-06-20T04:31:17.474Z,3627
2018-06-20T04:31:47.507Z,3617
2018-06-20T04:32:47.513Z,3627
2018-06-20T04:33:17.556Z,3647
2018-06-20T04:33:47.535Z,3677
2018-06-20T04:34:17.601Z,3710
2018-06-20T04:34:47.639Z,3747
2018-06-20T04:35:17.590Z,3787
2018-06-20T04:35:47.608Z,3830
2018-06-20T04:36:17.706Z,3877
2018-06-20T04:36:47.698Z,3927
2018-06-20T04:37:17.667Z,3980
2018-06-20T04:37:47.698Z,4033
2018-06-20T04:38:17.770Z,4090
2018-06-20T04:38:47.751Z,4160
2018-06-20T04:39:17.756Z,4247
2018-06-20T04:39:47.770Z,4340
2018-06-20T04:40:17.786Z,4443
2018-06-20T04:40:47.802Z,4547
2018-06-20T04:41:17.821Z,4660
2018-06-20T04:41:47.900Z,4763
2018-06-20T04:42:17.872Z,4857
2018-06-20T04:42:47.927Z,4943
2018-06-20T04:43:17.911Z,5020
2018-06-20T04:43:47.927Z,5103
2018-06-20T04:44:17.941Z,5203
2018-06-20T04:44:48.016Z,5317
2018-06-20T04:45:17.990Z,5427
2018-06-20T04:45:48.019Z,5550
2018-06-20T04:46:18.035Z,5653
2018-06-20T04:46:48.320Z,5723
2018-06-20T04:47:18.089Z,5767
2018-06-20T04:47:48.101Z,5810
2018-06-20T04:48:18.181Z,5847
2018-06-20T04:48:48.174Z,5880
2018-06-20T04:49:18.219Z,5917
2018-06-20T04:49:48.203Z,5957
2018-06-20T04:50:18.260Z,5990
2018-06-20T04:50:48.227Z,6037
2018-06-20T04:51:18.277Z,6080
2018-06-20T04:51:48.328Z,6127
2018-06-20T04:52:18.355Z,6170
2018-06-20T04:52:48.374Z,6210
2018-06-20T04:53:18.435Z,6250
2018-06-20T04:53:48.417Z,6290
2018-06-20T04:54:18.488Z,6330
2018-06-20T04:54:48.458Z,6370
2018-06-20T04:55:18.567Z,6403
2018-06-20T04:55:48.580Z,6443
2018-06-20T04:56:18.555Z,6483
2018-06-20T04:56:48.660Z,6520
2018-06-20T04:57:18.591Z,6560
2018-06-20T04:57:48.617Z,6610
2018-06-20T04:58:18.636Z,6643
2018-06-20T04:58:48.633Z,6680
2018-06-20T04:59:18.672Z,6717
2018-06-20T04:59:48.692Z,6743
2018-06-20T05:00:18.700Z,6783
2018-06-20T05:00:48.723Z,6820
2018-06-20T05:01:18.765Z,6850
2018-06-20T05:01:48.779Z,6883
2018-06-20T05:02:18.770Z,6910
2018-06-20T05:02:48.840Z,6940
2018-06-20T05:03:18.843Z,6960
2018-06-20T05:03:48.909Z,7287
2018-06-20T05:04:18.915Z,8200
2018-06-20T05:04:48.924Z,9400
2018-06-20T05:05:18.912Z,10597
2018-06-20T05:05:48.945Z,11657
2018-06-20T05:06:18.969Z,12010
2018-06-20T05:06:49.081Z,12033
2018-06-20T05:07:19.050Z,12063
2018-06-20T05:07:49.098Z,12100
2018-06-20T05:08:19.088Z,12020
2018-06-20T05:08:49.130Z,12053
2018-06-20T05:09:19.109Z,11803
2018-06-20T05:09:49.122Z,11657
2018-06-20T05:10:19.176Z,11230
2018-06-20T05:10:49.170Z,10760
2018-06-20T05:11:19.190Z,10243
2018-06-20T05:11:49.335Z,9903
2018-06-20T05:12:19.198Z,9807
2018-06-20T05:12:49.282Z,9457
2018-06-20T05:13:19.281Z,8837
2018-06-20T05:13:49.293Z,8607
2018-06-20T05:14:19.369Z,8327
2018-06-20T05:14:49.337Z,7980
2018-06-20T05:15:19.391Z,8043
2018-06-20T05:15:49.393Z,8183
2018-06-20T05:16:19.368Z,8330
2018-06-20T05:16:49.417Z,8247
2018-06-20T05:17:19.416Z,8210
2018-06-20T05:17:49.481Z,8230
2018-06-20T05:18:31.718Z,8160
2018-06-20T05:19:01.636Z,8207
2018-06-20T05:19:31.796Z,8290
2018-06-20T05:20:01.954Z,8323
2018-06-20T05:20:32.961Z,8347
2018-06-20T05:21:02.969Z,8303
2018-06-20T05:21:33.981Z,8317
2018-06-20T05:22:03.967Z,8327
2018-06-20T05:22:34.951Z,8390
2018-06-20T05:23:04.918Z,8430
2018-06-20T05:23:35.945Z,8450
2018-06-20T05:24:05.915Z,8727
2018-06-20T05:24:37.019Z,9073
2018-06-20T05:25:06.980Z,9533
2018-06-20T05:25:37.927Z,9650
2018-06-20T05:26:07.915Z,8843
2018-06-20T05:26:38.919Z,8713
2018-06-20T05:27:08.067Z,8560
2018-06-20T05:27:39.021Z,8507
2018-06-20T05:28:08.095Z,8600
2018-06-20T05:28:39.147Z,8613
2018-06-20T05:29:08.181Z,8767
2018-06-20T05:29:39.189Z,8857
2018-06-20T05:30:08.309Z,8863
2018-06-20T05:30:39.293Z,8913
2018-06-20T05:31:08.359Z,8920
2018-06-20T05:31:39.396Z,8763
2018-06-20T05:32:08.496Z,8747
2018-06-20T05:32:39.489Z,8773
2018-06-20T05:33:08.544Z,8867
2018-06-20T05:33:39.565Z,9050
2018-06-20T05:34:08.671Z,9583
2018-06-20T05:34:39.689Z,9797
2018-06-20T05:35:08.699Z,9967
2018-06-20T05:35:39.732Z,9763
2018-06-20T05:36:08.779Z,9163
2018-06-20T05:36:39.802Z,8947
2018-06-20T05:37:08.880Z,8883
2018-06-20T05:37:39.948Z,8887
2018-06-20T05:38:08.940Z,8913
2018-06-20T05:38:40.002Z,8977
2018-06-20T05:39:09.029Z,8967
2018-06-20T05:39:40.059Z,8970
2018-06-20T05:40:09.104Z,8937
2018-06-20T05:40:40.140Z,8930
2018-06-20T05:41:09.236Z,9077
2018-06-20T05:41:40.262Z,9230
2018-06-20T05:42:09.336Z,9350
2018-06-20T05:42:40.285Z,9660
2018-06-20T05:43:09.383Z,9857
2018-06-20T05:43:40.401Z,9973
2018-06-20T05:44:09.497Z,10160
2018-06-20T05:44:40.462Z,9893
2018-06-20T05:45:09.556Z,9677
2018-06-20T05:45:40.513Z,9443
2018-06-20T05:46:09.683Z,9417
2018-06-20T05:46:40.641Z,9517
2018-06-20T05:47:09.806Z,9520
2018-06-20T05:47:40.700Z,9433
2018-06-20T05:48:09.823Z,9417
2018-06-20T05:48:40.806Z,9647
2018-06-20T05:49:09.953Z,10023
2018-06-20T05:49:40.846Z,9790
2018-06-20T05:50:10.075Z,9820
2018-06-20T05:50:40.985Z,9857
2018-06-20T05:51:10.080Z,9840
2018-06-20T05:51:41.087Z,9883
2018-06-20T05:52:10.191Z,9837
2018-06-20T05:52:41.122Z,9843
2018-06-20T05:53:10.235Z,10023
2018-06-20T05:53:41.248Z,10223
2018-06-20T05:54:10.325Z,10283
2018-06-20T05:54:41.356Z,10207
2018-06-20T05:55:10.443Z,10100
2018-06-20T05:55:41.440Z,10140
2018-06-20T05:56:10.449Z,10187
2018-06-20T05:56:41.478Z,10227
2018-06-20T05:57:10.627Z,10287
2018-06-20T05:57:41.561Z,10323
2018-06-20T05:58:10.653Z,10383
2018-06-20T05:58:41.637Z,10460
2018-06-20T05:59:10.705Z,10523
2018-06-20T05:59:41.743Z,10620
2018-06-20T06:00:10.805Z,10707
2018-06-20T06:00:41.810Z,10850
2018-06-20T06:01:10.884Z,11000
2018-06-20T06:01:41.907Z,11120
2018-06-20T06:02:11.029Z,11233
2018-06-20T06:02:41.980Z,11280
2018-06-20T06:03:11.103Z,11317
2018-06-20T06:03:42.049Z,11297
2018-06-20T06:04:11.208Z,11313
2018-06-20T06:04:42.179Z,11297
2018-06-20T06:05:11.238Z,11327
2018-06-20T06:05:42.234Z,11390
2018-06-20T06:06:11.355Z,11443
2018-06-20T06:06:42.302Z,11553
2018-06-20T06:07:11.402Z,11650
2018-06-20T06:07:42.383Z,11730
2018-06-20T06:08:11.487Z,11830
2018-06-20T06:08:42.492Z,11910
2018-06-20T06:09:11.623Z,12130
2018-06-20T06:09:42.559Z,12160
2018-06-20T06:10:11.649Z,12837
2018-06-20T06:10:42.711Z,12913
2018-06-20T06:11:11.755Z,13500
2018-06-20T06:11:42.559Z,14130
2018-06-20T06:12:12.577Z,14123
2018-06-20T06:12:43.562Z,13340
2018-06-20T06:13:13.588Z,13630
2018-06-20T06:13:44.542Z,14403
2018-06-20T06:14:14.577Z,14173
2018-06-20T06:14:45.594Z,15053
2018-06-20T06:15:15.540Z,16013
2018-06-20T06:15:46.554Z,16103
2018-06-20T06:16:16.494Z,15720
2018-06-20T06:16:47.600Z,15187
2018-06-20T06:17:17.595Z,13897
2018-06-20T06:17:48.538Z,12590
2018-06-20T06:18:18.543Z,12260
2018-06-20T06:18:49.493Z,12050
2018-06-20T06:19:19.544Z,12150
2018-06-20T06:19:50.494Z,12207
2018-06-20T06:20:20.527Z,12350
2018-06-20T06:20:51.520Z,12697
2018-06-20T06:21:20.559Z,12993
2018-06-20T06:21:51.576Z,13190
2018-06-20T06:22:20.641Z,13133
2018-06-20T06:22:51.670Z,13277
2018-06-20T06:23:20.860Z,13293
2018-06-20T06:23:51.735Z,13497
2018-06-20T06:24:20.817Z,13823
2018-06-20T06:24:51.850Z,14137
2018-06-20T06:25:20.910Z,14383
2018-06-20T06:25:51.897Z,14697
2018-06-20T06:26:20.965Z,14997
2018-06-20T06:26:51.984Z,15297
2018-06-20T06:27:21.150Z,15587
2018-06-20T06:27:52.163Z,15813
2018-06-20T06:28:21.155Z,15927
2018-06-20T06:28:52.152Z,16033
2018-06-20T06:29:21.225Z,16153
2018-06-20T06:29:52.281Z,16347
2018-06-20T06:30:21.376Z,16520
2018-06-20T06:30:52.382Z,16697
2018-06-20T06:31:21.435Z,16910
2018-06-20T06:31:52.414Z,17243
2018-06-20T06:32:21.803Z,17633
2018-06-20T06:32:52.496Z,17890
2018-06-20T06:33:21.613Z,17977
2018-06-20T06:33:52.596Z,17953
2018-06-20T06:34:21.773Z,17777
2018-06-20T06:34:52.639Z,17620
2018-06-20T06:35:21.788Z,17320
2018-06-20T06:35:52.731Z,16867
2018-06-20T06:36:21.876Z,16287
2018-06-20T06:36:52.816Z,15850
2018-06-20T06:37:22.061Z,15440
2018-06-20T06:37:52.901Z,15317
2018-06-20T06:38:22.071Z,15497
2018-06-20T06:39:05.342Z,15950
2018-06-20T06:39:34.525Z,16357
2018-06-20T06:40:05.478Z,16637
2018-06-20T06:40:34.532Z,16877
2018-06-20T06:41:05.476Z,17107
2018-06-20T06:41:34.667Z,17423
2018-06-20T06:42:05.592Z,17797
2018-06-20T06:42:34.710Z,18060
2018-06-20T06:43:05.666Z,18160
2018-06-20T06:43:34.795Z,18090
2018-06-20T06:44:05.766Z,17940
2018-06-20T06:44:34.878Z,17723
2018-06-20T06:45:05.818Z,17480
2018-06-20T06:45:35.030Z,17330
2018-06-20T06:46:05.895Z,17230
2018-06-20T06:46:35.104Z,17200
2018-06-20T06:47:05.990Z,17247
2018-06-20T06:47:35.205Z,17387
2018-06-20T06:48:06.087Z,17473
2018-06-20T06:48:35.230Z,17577
2018-06-20T06:49:06.163Z,17600
2018-06-20T06:49:35.399Z,17677
2018-06-20T06:50:06.365Z,17613
2018-06-20T06:50:35.408Z,17550
2018-06-20T06:51:06.378Z,17443
2018-06-20T06:51:35.508Z,17353
2018-06-20T06:52:06.493Z,17293
2018-06-20T06:52:35.598Z,17220
2018-06-20T06:53:06.653Z,17190
2018-06-20T06:53:35.655Z,17167
2018-06-20T06:54:06.628Z,17257
2018-06-20T06:54:35.751Z,17487
2018-06-20T06:55:06.748Z,17727
2018-06-20T06:55:35.845Z,17970
2018-06-20T06:56:06.842Z,18060
2018-06-20T06:56:35.919Z,17970
2018-06-20T06:57:06.883Z,17720
2018-06-20T06:57:36.018Z,17393
2018-06-20T06:58:06.977Z,17080
2018-06-20T06:58:36.099Z,16783
2018-06-20T06:59:07.127Z,16530
2018-06-20T06:59:36.250Z,16310
2018-06-20T07:00:07.147Z,16110
2018-06-20T07:00:36.282Z,15947
2018-06-20T07:01:07.243Z,15800
2018-06-20T07:01:36.396Z,15650
2018-06-20T07:02:07.385Z,15527
2018-06-20T07:02:36.631Z,15383
2018-06-20T07:03:07.412Z,15220
2018-06-20T07:03:36.590Z,15077
2018-06-20T07:04:07.527Z,14947
2018-06-20T07:04:36.747Z,14763
2018-06-20T07:05:07.644Z,14503
2018-06-20T07:05:36.770Z,14187
2018-06-20T07:06:07.705Z,13827
2018-06-20T07:06:36.875Z,13473
2018-06-20T07:07:07.749Z,13167
2018-06-20T07:07:37.031Z,12910
2018-06-20T07:08:07.823Z,12660
2018-06-20T07:08:37.013Z,12423
2018-06-20T07:09:07.920Z,12243
2018-06-20T07:09:37.088Z,12090
2018-06-20T07:10:08.056Z,11983
2018-06-20T07:10:37.181Z,11883
2018-06-20T07:11:08.062Z,11823
2018-06-20T07:11:37.255Z,11807
2018-06-20T07:12:08.163Z,11820
2018-06-20T07:12:37.370Z,11853
2018-06-20T07:13:08.257Z,11890
2018-06-20T07:13:37.390Z,11913
2018-06-20T07:14:08.337Z,11920
2018-06-20T07:14:37.486Z,11937
2018-06-20T07:15:08.420Z,11973
2018-06-20T07:15:37.642Z,12063
2018-06-20T07:16:08.584Z,12153
2018-06-20T07:16:38.752Z,12240
2018-06-20T07:17:08.593Z,12330
2018-06-20T07:17:37.744Z,12413
2018-06-20T07:18:08.646Z,12477
2018-06-20T07:18:37.848Z,12517
2018-06-20T07:19:08.727Z,12537
2018-06-20T07:19:37.883Z,12547
2018-06-20T07:20:08.814Z,12523
2018-06-20T07:20:37.988Z,12480
2018-06-20T07:21:08.897Z,12417
2018-06-20T07:21:38.048Z,12380
2018-06-20T07:22:09.008Z,12370
2018-06-20T07:22:38.162Z,12390
2018-06-20T07:23:09.134Z,12433
2018-06-20T07:23:38.287Z,12500
2018-06-20T07:24:09.248Z,12557
2018-06-20T07:24:38.446Z,12597
2018-06-20T07:25:09.328Z,12637
2018-06-20T07:25:38.434Z,12657
2018-06-20T07:26:09.401Z,12697
2018-06-20T07:26:38.513Z,12757
2018-06-20T07:27:09.510Z,12820
2018-06-20T07:27:38.651Z,12880
2018-06-20T07:28:09.561Z,12930
2018-06-20T07:28:38.740Z,12980
2018-06-20T07:29:09.630Z,13033
2018-06-20T07:29:38.747Z,13107
2018-06-20T07:30:09.929Z,13193
2018-06-20T07:30:38.878Z,13290
2018-06-20T07:31:09.834Z,13373
2018-06-20T07:31:38.917Z,13430
2018-06-20T07:32:09.845Z,13477
2018-06-20T07:32:38.999Z,13520
2018-06-20T07:33:09.922Z,13570
2018-06-20T07:33:39.138Z,13637
2018-06-20T07:34:10.119Z,13733
2018-06-20T07:34:39.181Z,13837
2018-06-20T07:35:10.114Z,13960
2018-06-20T07:35:39.403Z,14100
2018-06-20T07:36:10.274Z,14253
2018-06-20T07:36:39.368Z,14453
2018-06-20T07:37:10.328Z,14703
2018-06-20T07:37:39.456Z,15020
2018-06-20T07:38:10.363Z,15387
2018-06-20T07:38:39.547Z,15800
2018-06-20T07:39:10.455Z,16243
2018-06-20T07:39:39.605Z,16670
2018-06-20T07:40:10.517Z,17013
2018-06-20T07:40:39.695Z,17220
2018-06-20T07:41:10.632Z,17310
2018-06-20T07:41:39.763Z,17260
2018-06-20T07:42:10.668Z,17137
2018-06-20T07:42:39.905Z,16943
2018-06-20T07:43:10.811Z,16753
2018-06-20T07:43:40.214Z,16520
2018-06-20T07:44:10.853Z,16247
2018-06-20T07:44:40.040Z,15977
2018-06-20T07:45:11.023Z,15797
2018-06-20T07:45:40.123Z,15687
2018-06-20T07:46:11.029Z,15620
2018-06-20T07:46:40.201Z,15553
2018-06-20T07:47:11.099Z,15503
2018-06-20T07:47:40.290Z,15483
2018-06-20T07:48:11.192Z,15453
2018-06-20T07:48:40.447Z,15407
2018-06-20T07:49:11.320Z,15423
2018-06-20T07:49:40.496Z,15420
2018-06-20T07:50:11.429Z,15380
2018-06-20T07:50:40.548Z,15260
2018-06-20T07:51:11.484Z,15090
2018-06-20T07:51:40.606Z,14920
2018-06-20T07:52:11.605Z,14763
2018-06-20T07:52:40.704Z,14603
2018-06-20T07:53:11.643Z,14460
2018-06-20T07:53:40.784Z,14353
2018-06-20T07:54:11.779Z,14263
2018-06-20T07:54:40.885Z,14203
2018-06-20T07:55:11.857Z,14167
2018-06-20T07:55:41.008Z,14123
2018-06-20T07:56:11.973Z,14103
2018-06-20T07:56:42.171Z,14127
2018-06-20T07:57:13.153Z,14183
2018-06-20T07:57:43.205Z,14283
2018-06-20T07:58:13.215Z,14377
2018-06-20T07:58:43.265Z,14470
2018-06-20T07:59:13.281Z,14637
2018-06-20T07:59:43.250Z,14787
2018-06-20T08:00:13.338Z,15043
2018-06-20T08:00:43.387Z,15280
2018-06-20T08:01:13.436Z,15537
2018-06-20T08:01:43.401Z,15830
2018-06-20T08:02:13.472Z,16147
2018-06-20T08:02:43.428Z,16450
2018-06-20T08:03:13.524Z,16737
2018-06-20T08:03:43.500Z,17000
2018-06-20T08:04:13.606Z,17163
2018-06-20T08:04:43.634Z,17330
2018-06-20T08:05:13.669Z,17453
2018-06-20T08:05:43.606Z,17553
2018-06-20T08:06:13.737Z,17660
2018-06-20T08:06:43.735Z,17797
2018-06-20T08:07:13.771Z,17980
2018-06-20T08:07:43.727Z,18193
2018-06-20T08:08:13.827Z,18700
2018-06-20T08:08:43.811Z,18793
2018-06-20T08:09:13.920Z,19117
2018-06-20T08:09:43.854Z,19540
2018-06-20T08:10:13.938Z,19870
2018-06-20T08:10:43.915Z,20193
2018-06-20T08:11:14.009Z,20790
2018-06-20T08:11:44.033Z,21233
2018-06-20T08:12:14.059Z,20307
2018-06-20T08:12:44.043Z,20173
2018-06-20T08:13:14.119Z,20353
2018-06-20T08:13:44.110Z,20563
2018-06-20T08:14:14.199Z,20763
2018-06-20T08:14:44.201Z,20997
2018-06-20T08:15:14.320Z,21297
2018-06-20T08:15:44.235Z,21717
2018-06-20T08:16:14.359Z,22377
2018-06-20T08:16:44.338Z,22423
2018-06-20T08:17:14.386Z,22740
2018-06-20T08:17:44.393Z,22457
2018-06-20T08:18:14.467Z,22253
2018-06-20T08:18:44.450Z,22230
2018-06-20T08:19:14.504Z,22357
2018-06-20T08:19:44.565Z,22727
2018-06-20T08:20:14.604Z,22880
2018-06-20T08:20:44.616Z,22907
2018-06-20T08:21:14.640Z,23040
2018-06-20T08:21:44.662Z,23470
2018-06-20T08:22:14.687Z,23227
2018-06-20T08:22:44.688Z,23443
2018-06-20T08:23:14.745Z,23797
2018-06-20T08:23:44.715Z,24323
2018-06-20T08:24:14.802Z,24847
2018-06-20T08:24:44.802Z,25193
2018-06-20T08:25:14.857Z,25433
2018-06-20T08:25:44.859Z,25843
2018-06-20T08:26:14.925Z,25570
2018-06-20T08:26:44.906Z,25863
2018-06-20T08:27:15.009Z,26813
2018-06-20T08:27:44.982Z,26360
2018-06-20T08:28:15.063Z,25687
2018-06-20T08:28:45.027Z,25497
2018-06-20T08:29:15.115Z,25230
2018-06-20T08:29:45.088Z,25160
2018-06-20T08:30:15.177Z,25183
2018-06-20T08:30:45.163Z,25463
2018-06-20T08:31:15.236Z,26310
2018-06-20T08:31:45.216Z,25730
2018-06-20T08:32:15.357Z,25410
2018-06-20T08:32:45.306Z,25370
2018-06-20T08:33:15.434Z,25337
2018-06-20T08:33:45.333Z,25497
2018-06-20T08:34:15.473Z,25803
2018-06-20T08:34:45.482Z,26140
2018-06-20T08:35:15.502Z,26507
2018-06-20T08:35:45.491Z,27940
2018-06-20T08:36:15.584Z,27143
2018-06-20T08:36:45.571Z,27383
2018-06-20T08:37:15.709Z,27213
2018-06-20T08:37:45.601Z,27287
2018-06-20T08:38:15.688Z,27570
2018-06-20T08:38:45.723Z,28087
2018-06-20T08:39:15.814Z,28920
2018-06-20T08:39:45.732Z,29463
2018-06-20T08:40:15.814Z,30853
2018-06-20T08:40:45.858Z,31603
2018-06-20T08:41:15.873Z,31780
2018-06-20T08:41:45.889Z,32403
2018-06-20T08:42:15.936Z,31017
2018-06-20T08:42:45.921Z,31003
2018-06-20T08:43:15.993Z,31250
2018-06-20T08:43:46.001Z,31613
2018-06-20T08:44:16.083Z,30327
2018-06-20T08:44:46.053Z,30333
2018-06-20T08:45:16.264Z,29757
2018-06-20T08:45:46.118Z,28957
2018-06-20T08:46:16.187Z,27627
2018-06-20T08:46:46.169Z,26787
2018-06-20T08:47:16.250Z,26437
2018-06-20T08:47:46.235Z,25687
2018-06-20T08:48:16.305Z,25153
2018-06-20T08:48:46.305Z,24773
2018-06-20T08:49:16.372Z,24623
2018-06-20T08:49:46.395Z,24410
2018-06-20T08:50:16.453Z,23950
2018-06-20T08:50:46.426Z,23653
2018-06-20T08:51:16.481Z,23377
2018-06-20T08:51:46.485Z,23173
2018-06-20T08:52:16.563Z,22977
2018-06-20T08:52:46.556Z,22827
2018-06-20T08:53:16.589Z,22813
2018-06-20T08:53:46.626Z,23007
2018-06-20T08:54:16.650Z,23360
2018-06-20T08:54:46.658Z,23713
2018-06-20T08:55:16.750Z,23917
2018-06-20T08:55:46.694Z,24080
2018-06-20T08:56:16.784Z,24217
2018-06-20T08:56:46.755Z,24337
2018-06-20T08:57:16.835Z,24507
2018-06-20T08:57:46.830Z,24707
2018-06-20T08:58:16.892Z,24747
2018-06-20T08:58:46.882Z,24727
2018-06-20T08:59:16.974Z,24650
2018-06-20T08:59:46.948Z,24510
2018-06-20T09:00:17.089Z,24213
2018-06-20T09:00:46.998Z,23767
2018-06-20T09:01:17.082Z,23253
2018-06-20T09:01:47.060Z,22720
2018-06-20T09:02:17.152Z,22287
2018-06-20T09:02:47.179Z,21977
2018-06-20T09:03:17.204Z,21713
2018-06-20T09:03:47.264Z,21500
2018-06-20T09:04:17.330Z,21330
2018-06-20T09:04:47.312Z,21160
2018-06-20T09:05:17.394Z,21190
2018-06-20T09:05:47.332Z,24917
2018-06-20T09:06:17.484Z,20993
2018-06-20T09:06:47.417Z,20537
2018-06-20T09:07:17.465Z,20697
2018-06-20T09:07:47.492Z,20283
2018-06-20T09:08:17.545Z,21020
2018-06-20T09:08:47.580Z,19907
2018-06-20T09:09:17.609Z,19670
2018-06-20T09:09:47.560Z,19643
2018-06-20T09:10:17.667Z,19710
2018-06-20T09:10:47.666Z,19953
2018-06-20T09:11:17.697Z,19683
2018-06-20T09:11:47.722Z,19467